MSC Suez — HPMS — position and weather

sailwx.info

Track history (hours):
 
Tides and Currents Weather Stations Pressure Air Temp Water Temp Dewpoint Dewpoint Depression Visibility Wind Speed Wind Dir Waves Ship Positions

MSC Suez

Last reported at 2016-Sep-29 07:31 UTC. Time now 2016-Sep-29 08:25 UTC.
Position N 28°08' W 015°25'.

Length 237 m; draft 10.5 m.

Type: Ship. MMSI: 355289000.

Date/timePositionNaut miles runAvg speedWind from/ knotsBaromVisibWave heightAir tempDewpointWater temp
2016-Sep-29 07:31N 28°08' W 015°25'7610.9
2016-Sep-29 00:33N 29°21' W 015°01'4615.5
2016-Sep-28 21:33N 30°06' W 014°47'2412.3
2016-Sep-28 19:33N 30°30' W 014°40'4916.4
2016-Sep-28 16:33N 31°17' W 014°25'1616.3
2016-Sep-28 15:33N 31°33' W 014°21'4314.2
2016-Sep-28 12:33N 32°14' W 014°08'5012.5
2016-Sep-28 08:33N 33°02' W 013°53'9016.6
2016-Sep-28 03:06N 34°30' W 013°26'1116.1
2016-Sep-28 02:25N 34°40' W 013°22'1816.3
2016-Sep-28 01:19N 34°58' W 013°17'  
2016-Sep-25 07:30N 49°40' W 003°51'4415.0
2016-Sep-25 04:33N 49°60' W 002°49'5212.9
2016-Sep-25 00:34N 49°53' W 001°30'3115.6
2016-Sep-24 22:33N 49°42' W 000°45'1717.2
2016-Sep-24 21:33N 49°35' W 000°21'20 9.9
2016-Sep-24 19:33N 49°28' E 000°08'0 0.0
2016-Sep-24 18:33N 49°28' E 000°08'0 0.0
2016-Sep-24 17:33N 49°28' E 000°08'0 0.0
2016-Sep-24 16:33N 49°28' E 000°08'0 0.0
2016-Sep-24 14:33N 49°28' E 000°08'0 0.0
2016-Sep-24 12:33N 49°28' E 000°08'0 0.0
2016-Sep-24 10:31N 49°28' E 000°08'0 0.0
2016-Sep-24 09:31N 49°28' E 000°08'4 0.7
2016-Sep-24 03:33N 49°30' E 000°02'9 9.3
2016-Sep-24 02:33N 49°34' W 000°11'1010.5
2016-Sep-24 01:33N 49°44' W 000°11'1414.4
2016-Sep-24 00:33N 49°58' W 000°11'7414.9
2016-Sep-23 19:33N 50°54' E 001°08'2914.7
2016-Sep-23 17:33N 51°15' E 001°39'1514.9
2016-Sep-23 16:33N 51°30' E 001°45'1716.6
2016-Sep-23 15:33N 51°46' E 001°45'20 9.8
2016-Sep-23 13:31N 51°58' E 001°18'0 0.0
2016-Sep-23 09:33N 51°58' E 001°18'0 0.0
2016-Sep-23 06:33N 51°58' E 001°18'0 0.0
2016-Sep-23 04:33N 51°58' E 001°18'0 0.0
2016-Sep-23 03:33N 51°58' E 001°18'0 0.0
2016-Sep-23 02:33N 51°58' E 001°18'0 0.0
2016-Sep-23 01:33N 51°58' E 001°18'0 0.0
2016-Sep-23 00:33N 51°58' E 001°18'0 0.0
2016-Sep-22 23:33N 51°58' E 001°18'16 5.3
2016-Sep-22 20:33N 51°53' E 001°42'2 0.2
2016-Sep-22 12:31N 51°54' E 001°41'40 5.1
2016-Sep-22 04:34N 51°21' E 002°17'1414.0
2016-Sep-22 03:34N 51°23' E 002°40'3812.7
2016-Sep-22 00:33N 51°26' E 003°40'1110.9
2016-Sep-21 23:34N 51°25' E 003°58'1010.5
2016-Sep-21 22:34N 51°22' E 004°14'4 1.3
2016-Sep-21 19:26N 51°19' E 004°19'0 0.0
2016-Sep-21 16:32N 51°19' E 004°19'0 0.0
2016-Sep-21 09:32N 51°19' E 004°19'0 0.0
2016-Sep-21 08:32N 51°19' E 004°19'0 0.0
2016-Sep-21 05:31N 51°19' E 004°19'0 0.0
2016-Sep-21 03:31N 51°19' E 004°19'0 0.0
2016-Sep-21 02:31N 51°19' E 004°19'2 0.3
2016-Sep-20 17:31N 51°18' E 004°16'0 0.0
2016-Sep-20 14:31N 51°18' E 004°16'0 0.0
2016-Sep-20 13:31N 51°18' E 004°16'0 0.0
2016-Sep-20 10:31N 51°18' E 004°16'0 0.0
2016-Sep-20 08:31N 51°18' E 004°16'0 0.0
2016-Sep-20 07:31N 51°18' E 004°16'0 0.0
2016-Sep-20 06:31N 51°18' E 004°16'16 4.0
2016-Sep-20 02:34N 51°21' E 003°51'3210.7
2016-Sep-19 23:33N 51°42' E 003°12'14916.5
2016-Sep-19 14:31N 53°58' E 004°52'1818.8
2016-Sep-19 13:33N 54°14' E 005°05'  
Track history (hours):
 
Tides and Currents Weather Stations Pressure Air Temp Water Temp Dewpoint Dewpoint Depression Visibility Wind Speed Wind Dir Waves Ship Positions

MSC Suez

Last reported at 2016-Sep-29 07:31 UTC. Time now 2016-Sep-29 08:25 UTC.
Position N 28°08' W 015°25'.

Length 237 m; draft 10.5 m.

Type: Ship. MMSI: 355289000.

Date/timePositionNaut miles runAvg speedWind from/ knotsBaromVisibWave heightAir tempDewpointWater temp
2016-Sep-29 07:31N 28°08' W 015°25'7610.9
2016-Sep-29 00:33N 29°21' W 015°01'4615.5
2016-Sep-28 21:33N 30°06' W 014°47'2412.3
2016-Sep-28 19:33N 30°30' W 014°40'4916.4
2016-Sep-28 16:33N 31°17' W 014°25'1616.3
2016-Sep-28 15:33N 31°33' W 014°21'4314.2
2016-Sep-28 12:33N 32°14' W 014°08'5012.5
2016-Sep-28 08:33N 33°02' W 013°53'9016.6
2016-Sep-28 03:06N 34°30' W 013°26'1116.1
2016-Sep-28 02:25N 34°40' W 013°22'1816.3
2016-Sep-28 01:19N 34°58' W 013°17'  
2016-Sep-25 07:30N 49°40' W 003°51'4415.0
2016-Sep-25 04:33N 49°60' W 002°49'5212.9
2016-Sep-25 00:34N 49°53' W 001°30'3115.6
2016-Sep-24 22:33N 49°42' W 000°45'1717.2
2016-Sep-24 21:33N 49°35' W 000°21'20 9.9
2016-Sep-24 19:33N 49°28' E 000°08'0 0.0
2016-Sep-24 18:33N 49°28' E 000°08'0 0.0
2016-Sep-24 17:33N 49°28' E 000°08'0 0.0
2016-Sep-24 16:33N 49°28' E 000°08'0 0.0
2016-Sep-24 14:33N 49°28' E 000°08'0 0.0
2016-Sep-24 12:33N 49°28' E 000°08'0 0.0
2016-Sep-24 10:31N 49°28' E 000°08'0 0.0
2016-Sep-24 09:31N 49°28' E 000°08'4 0.7
2016-Sep-24 03:33N 49°30' E 000°02'9 9.3
2016-Sep-24 02:33N 49°34' W 000°11'1010.5
2016-Sep-24 01:33N 49°44' W 000°11'1414.4
2016-Sep-24 00:33N 49°58' W 000°11'7414.9
2016-Sep-23 19:33N 50°54' E 001°08'2914.7
2016-Sep-23 17:33N 51°15' E 001°39'1514.9
2016-Sep-23 16:33N 51°30' E 001°45'1716.6
2016-Sep-23 15:33N 51°46' E 001°45'20 9.8
2016-Sep-23 13:31N 51°58' E 001°18'0 0.0
2016-Sep-23 09:33N 51°58' E 001°18'0 0.0
2016-Sep-23 06:33N 51°58' E 001°18'0 0.0
2016-Sep-23 04:33N 51°58' E 001°18'0 0.0
2016-Sep-23 03:33N 51°58' E 001°18'0 0.0
2016-Sep-23 02:33N 51°58' E 001°18'0 0.0
2016-Sep-23 01:33N 51°58' E 001°18'0 0.0
2016-Sep-23 00:33N 51°58' E 001°18'0 0.0
2016-Sep-22 23:33N 51°58' E 001°18'16 5.3
2016-Sep-22 20:33N 51°53' E 001°42'2 0.2
2016-Sep-22 12:31N 51°54' E 001°41'40 5.1
2016-Sep-22 04:34N 51°21' E 002°17'1414.0
2016-Sep-22 03:34N 51°23' E 002°40'3812.7
2016-Sep-22 00:33N 51°26' E 003°40'1110.9
2016-Sep-21 23:34N 51°25' E 003°58'1010.5
2016-Sep-21 22:34N 51°22' E 004°14'4 1.3
2016-Sep-21 19:26N 51°19' E 004°19'0 0.0
2016-Sep-21 16:32N 51°19' E 004°19'0 0.0
2016-Sep-21 09:32N 51°19' E 004°19'0 0.0
2016-Sep-21 08:32N 51°19' E 004°19'0 0.0
2016-Sep-21 05:31N 51°19' E 004°19'0 0.0
2016-Sep-21 03:31N 51°19' E 004°19'0 0.0
2016-Sep-21 02:31N 51°19' E 004°19'2 0.3
2016-Sep-20 17:31N 51°18' E 004°16'0 0.0
2016-Sep-20 14:31N 51°18' E 004°16'0 0.0
2016-Sep-20 13:31N 51°18' E 004°16'0 0.0
2016-Sep-20 10:31N 51°18' E 004°16'0 0.0
2016-Sep-20 08:31N 51°18' E 004°16'0 0.0
2016-Sep-20 07:31N 51°18' E 004°16'0 0.0
2016-Sep-20 06:31N 51°18' E 004°16'16 4.0
2016-Sep-20 02:34N 51°21' E 003°51'3210.7
2016-Sep-19 23:33N 51°42' E 003°12'14916.5
2016-Sep-19 14:31N 53°58' E 004°52'1818.8
2016-Sep-19 13:33N 54°14' E 005°05'  

Dump ship's entire track history